VEGT/GAU METAR and TAF weather

Enter ICAO airport designator
Station Type Date Time Source
VEGT METAR 2020/01/24 09:30 UTC NOAA

VEGT 240930Z 06003KT 1800 HZ SCT018 BKN100 19/13 Q1014 NOSIG


Station Type Date Time Source
VEGT Decoded METAR 2020/01/24 09:30 UTC NOAA

Gauhati, India (VEGT) 26-06N 091-35E 54M
Jan 24, 2020 - 04:30 AM EST / 2020.01.24 0930 UTC
Wind: from the ENE (060 degrees) at 3 MPH (3 KT):0
Visibility: 1 mile(s):0
Sky conditions: mostly cloudy
Weather: haze
Temperature: 66 F (19 C)
Dew Point: 55 F (13 C)
Relative Humidity: 68%
Pressure (altimeter): 29.94 in. Hg (1014 hPa)
ob: VEGT 240930Z 06003KT 1800 HZ SCT018 BKN100 19/13 Q1014 NOSIG
cycle: 9

Station Type Date Time Source
VEGT TAF 2016/03/24 00:45 UTC NOAA

TAF VEGT 242300Z 2500/2606 00000KT 2000 BR FEW020
BECMG 2503/2506 05008KT 4000 HZ
BECMG 2506/2509 5000 HZ
BECMG 2512/2514 00000KT 4000 HZ FEW020 SCT100
BECMG 2515/2518 2500 HZ
BECMG 2603/2606 05008KT 4000 HZ FEW020=

Example: see airport list